Ahbra Franco — WDG8801 — position and weather

sailwx.info

Track history (hours):
 
Tides and Currents Weather Stations Pressure Air Temp Water Temp Dewpoint Dewpoint Depression Visibility Wind Speed Wind Dir Waves Ship Positions

Ahbra Franco

Owner: Harley Marine Services, Inc, Seattle, WA. More information available from US FCC via Universal Licensing System and Coast Guard Vessel Documentation Center.

Last reported at 2017-Oct-17 12:29 UTC. Time now 2017-Oct-17 13:00 UTC.
Position N 37°48' W 122°17'.

Length 33 m; draft 5.9 m.

Type: Tug. MMSI: 367581220.

Date/timePositionNaut miles runAvg speedWind from/ knotsBaromVisibWave heightAir tempDewpointWater temp
2017-Oct-17 12:29N 37°48' W 122°17'0 0.0
2017-Oct-17 11:59N 37°48' W 122°17'0 0.0
2017-Oct-17 11:29N 37°48' W 122°17'0 0.0
2017-Oct-17 10:56N 37°48' W 122°17'0 0.0
2017-Oct-17 10:29N 37°48' W 122°17'0 0.0
2017-Oct-17 09:59N 37°48' W 122°17'0 0.0
2017-Oct-17 09:29N 37°48' W 122°17'0 0.0
2017-Oct-17 08:59N 37°48' W 122°17'0 0.0
2017-Oct-17 08:29N 37°48' W 122°17'0 0.0
2017-Oct-17 07:59N 37°48' W 122°17'0 0.0
2017-Oct-17 07:29N 37°48' W 122°17'0 0.0
2017-Oct-17 06:59N 37°48' W 122°17'0 0.0
2017-Oct-17 06:29N 37°48' W 122°17'0 0.0
2017-Oct-17 05:59N 37°48' W 122°17'0 0.0
2017-Oct-17 05:26N 37°48' W 122°17'0 0.0
2017-Oct-17 04:59N 37°48' W 122°17'0 0.0
2017-Oct-17 04:29N 37°48' W 122°17'0 0.0
2017-Oct-17 03:59N 37°48' W 122°17'0 0.0
2017-Oct-17 03:29N 37°48' W 122°17'0 0.0
2017-Oct-17 02:59N 37°48' W 122°17'0 0.0
2017-Oct-17 02:29N 37°48' W 122°17'0 0.0
2017-Oct-17 01:59N 37°48' W 122°17'0 0.0
2017-Oct-17 01:29N 37°48' W 122°17'0 0.0
2017-Oct-17 00:59N 37°48' W 122°17'0 0.0
2017-Oct-17 00:29N 37°48' W 122°17'0 0.0
2017-Oct-16 23:59N 37°48' W 122°17'0 0.0
2017-Oct-16 23:29N 37°48' W 122°17'0 0.0
2017-Oct-16 22:56N 37°48' W 122°17'1 1.2
2017-Oct-16 22:30N 37°48' W 122°18'1 2.7
2017-Oct-16 22:00N 37°48' W 122°20'0 0.9
2017-Oct-16 21:30N 37°48' W 122°20'0 1.0
2017-Oct-16 21:00N 37°48' W 122°21'3 5.6
2017-Oct-16 20:30N 37°48' W 122°17'0 0.0
2017-Oct-16 20:00N 37°48' W 122°17'0 0.0
2017-Oct-16 19:30N 37°48' W 122°17'0 0.0
2017-Oct-16 19:00N 37°48' W 122°17'0 0.0
2017-Oct-16 18:30N 37°48' W 122°17'0 0.0
2017-Oct-16 18:00N 37°48' W 122°17'0 0.0
2017-Oct-16 17:30N 37°48' W 122°17'0 0.0
2017-Oct-16 17:00N 37°48' W 122°17'0 0.0
2017-Oct-16 16:30N 37°48' W 122°17'0 0.0
2017-Oct-16 16:00N 37°48' W 122°17'0 0.0
2017-Oct-16 15:30N 37°48' W 122°17'0 0.0
2017-Oct-16 15:00N 37°48' W 122°17'0 0.0
2017-Oct-16 14:30N 37°48' W 122°17'1 1.1
2017-Oct-16 13:30N 37°48' W 122°19'0 0.7
2017-Oct-16 13:00N 37°48' W 122°19'1 2.5
2017-Oct-16 12:30N 37°48' W 122°21'1 1.8
2017-Oct-16 12:00N 37°48' W 122°22'2 4.4
2017-Oct-16 11:31N 37°48' W 122°19'0 0.1
2017-Oct-16 11:01N 37°48' W 122°19'0 0.3
2017-Oct-16 10:30N 37°48' W 122°19'1 2.3
2017-Oct-16 10:00N 37°48' W 122°17'0 0.0
2017-Oct-16 09:30N 37°48' W 122°17'0 0.0
2017-Oct-16 09:00N 37°48' W 122°17'0 0.0
2017-Oct-16 08:31N 37°48' W 122°17'0 0.0
2017-Oct-16 08:00N 37°48' W 122°17'0 0.0
2017-Oct-16 07:30N 37°48' W 122°17'0 0.0
2017-Oct-16 07:00N 37°48' W 122°17'0 0.0
2017-Oct-16 06:30N 37°48' W 122°17'0 0.0
2017-Oct-16 06:00N 37°48' W 122°17'0 0.0
2017-Oct-16 05:30N 37°48' W 122°17'0 0.0
2017-Oct-16 05:00N 37°48' W 122°17'0 0.0
2017-Oct-16 04:30N 37°48' W 122°17'0 0.0
2017-Oct-16 04:00N 37°48' W 122°17'0 0.0
2017-Oct-16 03:31N 37°48' W 122°17'0 0.0
2017-Oct-16 03:00N 37°48' W 122°17'0 0.0
2017-Oct-16 02:30N 37°48' W 122°17'0 0.0
2017-Oct-16 02:01N 37°48' W 122°17'0 0.3
2017-Oct-16 01:30N 37°48' W 122°17'1 1.9
2017-Oct-16 01:00N 37°48' W 122°19'1 1.6
2017-Oct-16 00:30N 37°48' W 122°18'2 4.5
2017-Oct-16 00:00N 37°48' W 122°20'2 3.1
2017-Oct-15 23:30N 37°48' W 122°22'4 8.2
2017-Oct-15 23:00N 37°48' W 122°17'0 0.0
2017-Oct-15 22:30N 37°48' W 122°17'0 0.0
2017-Oct-15 22:00N 37°48' W 122°17'0 0.0
2017-Oct-15 21:30N 37°48' W 122°17'0 0.0
2017-Oct-15 21:00N 37°48' W 122°17'0 0.0
2017-Oct-15 20:30N 37°48' W 122°17'0 0.0
2017-Oct-15 20:00N 37°48' W 122°17'4 7.1
2017-Oct-15 19:30N 37°48' W 122°22'2 3.8
2017-Oct-15 19:00N 37°48' W 122°24'4 7.3
2017-Oct-15 18:30N 37°48' W 122°19'2 3.7
2017-Oct-15 18:00N 37°48' W 122°17'0 0.0
2017-Oct-15 17:30N 37°48' W 122°17'0 0.0
2017-Oct-15 17:00N 37°48' W 122°17'2 3.5
2017-Oct-15 16:30N 37°48' W 122°19'4 7.1
2017-Oct-15 16:00N 37°44' W 122°21'5 9.2
2017-Oct-15 15:30N 37°40' W 122°20'5 9.0
2017-Oct-15 15:00N 37°36' W 122°16'6 5.9
2017-Oct-15 14:00N 37°31' W 122°12'0 0.4
2017-Oct-15 13:30N 37°31' W 122°13'1 2.4
2017-Oct-15 13:00N 37°32' W 122°12'510.0
2017-Oct-15 12:30N 37°36' W 122°16'510.9
2017-Oct-15 12:00N 37°40' W 122°20'510.8
2017-Oct-15 11:30N 37°45' W 122°21'3 6.4
2017-Oct-15 11:00N 37°48' W 122°18'1 1.7
2017-Oct-15 10:30N 37°48' W 122°17'0 0.0
2017-Oct-15 10:00N 37°48' W 122°17'0 0.0
2017-Oct-15 09:30N 37°48' W 122°17'0 0.0
2017-Oct-15 09:01N 37°48' W 122°17'0 0.0
2017-Oct-15 08:30N 37°48' W 122°17'0 0.0
2017-Oct-15 08:00N 37°48' W 122°17'0 0.0
2017-Oct-15 07:30N 37°48' W 122°17'0 0.0
2017-Oct-15 07:01N 37°48' W 122°17'3 5.0
2017-Oct-15 06:30N 37°48' W 122°20'4 7.8
2017-Oct-15 06:00N 37°51' W 122°24'510.6
2017-Oct-15 05:30N 37°56' W 122°26'5 9.6
2017-Oct-15 05:00N 38°00' W 122°24'5 9.3
2017-Oct-15 04:28N 38°03' W 122°19'4 8.6
2017-Oct-15 04:00N 38°04' W 122°14'5 3.8
2017-Oct-15 02:48N 38°02' W 122°08'1 2.9
2017-Oct-15 02:20N 38°02' W 122°10'3 0.4
2017-Oct-14 18:17N 38°04' W 122°13'310.0
2017-Oct-14 17:59N 38°03' W 122°17'6 9.8
2017-Oct-14 17:20N 38°00' W 122°24'4 9.2
2017-Oct-14 16:52N 37°56' W 122°26'410.5
2017-Oct-14 16:30N 37°53' W 122°25'510.0
2017-Oct-14 16:00N 37°48' W 122°22'4 7.9
2017-Oct-14 15:30N 37°48' W 122°17'0 0.1
2017-Oct-14 15:00N 37°48' W 122°17'0 0.0
2017-Oct-14 14:30N 37°48' W 122°17'0 0.0
2017-Oct-14 14:00N 37°48' W 122°17'0 0.0
2017-Oct-14 13:30N 37°48' W 122°17'0 0.0
2017-Oct-14 13:00N 37°48' W 122°17'0 0.0
2017-Oct-14 12:30N 37°48' W 122°17'2 3.1
2017-Oct-14 12:00N 37°48' W 122°19'1 2.8
2017-Oct-14 11:30N 37°48' W 122°17'2 3.3
2017-Oct-14 11:00N 37°48' W 122°19'0 0.2
2017-Oct-14 10:31N 37°48' W 122°20'0 0.2
2017-Oct-14 10:00N 37°48' W 122°19'2 3.6
2017-Oct-14 09:30N 37°48' W 122°17'0 0.0
2017-Oct-14 09:00N 37°48' W 122°17'0 0.0
2017-Oct-14 08:30N 37°48' W 122°17'0 0.0
2017-Oct-14 08:01N 37°48' W 122°17'0 0.0
2017-Oct-14 07:30N 37°48' W 122°17'3 5.2
2017-Oct-14 07:00N 37°48' W 122°20'4 7.8
2017-Oct-14 06:30N 37°51' W 122°24'611.4
2017-Oct-14 06:00N 37°56' W 122°26'510.6
2017-Oct-14 05:30N 38°01' W 122°23'510.1
2017-Oct-14 05:00N 38°03' W 122°17'5 9.4
2017-Oct-14 04:30N 38°03' W 122°11'3 6.1
2017-Oct-14 04:00N 38°02' W 122°08'0 0.0
2017-Oct-14 03:27N 38°02' W 122°08'0 0.3
2017-Oct-14 02:59N 38°02' W 122°08'0 0.5
2017-Oct-14 02:26N 38°02' W 122°08'4 9.8
2017-Oct-14 02:00N 38°04' W 122°13'610.7
2017-Oct-14 01:28N 38°03' W 122°20'710.6
2017-Oct-14 00:50N 37°58' W 122°26'2 7.2
2017-Oct-14 00:30N 37°55' W 122°25'3 5.6
2017-Oct-14 00:00N 37°54' W 122°22'1 1.8
2017-Oct-13 23:30N 37°55' W 122°22'0 0.7
2017-Oct-13 23:00N 37°55' W 122°22'1 1.1
2017-Oct-13 22:30N 37°54' W 122°22'4 8.5
2017-Oct-13 22:00N 37°57' W 122°26'510.1
2017-Oct-13 21:30N 38°01' W 122°23'610.9
2017-Oct-13 20:55N 38°04' W 122°15'510.7
2017-Oct-13 20:25N 38°02' W 122°08'1 0.5
2017-Oct-13 19:21N 38°02' W 122°08'0 0.4
2017-Oct-13 19:00N 38°02' W 122°08'3 6.3
2017-Oct-13 18:27N 38°03' W 122°12'4 8.6
2017-Oct-13 18:00N 38°04' W 122°17'5 7.5
2017-Oct-13 17:17N 38°01' W 122°23'310.2
2017-Oct-13 16:58N 37°59' W 122°26'5 9.9
2017-Oct-13 16:30N 37°54' W 122°27'510.5
2017-Oct-13 16:00N 37°49' W 122°24'4 8.8
2017-Oct-13 15:30N 37°46' W 122°21'0 0.4
2017-Oct-13 15:00N 37°45' W 122°21'3 5.4
2017-Oct-13 14:30N 37°48' W 122°21'0 0.9
2017-Oct-13 14:00N 37°48' W 122°21'0 0.0
2017-Oct-13 13:30N 37°48' W 122°21'1 2.2
2017-Oct-13 13:01N 37°48' W 122°19'1 1.6
2017-Oct-13 12:30N 37°48' W 122°20'1 3.0
2017-Oct-13 12:00N 37°48' W 122°22'1 2.7
2017-Oct-13 11:30N 37°48' W 122°21'0 0.0
2017-Oct-13 11:00N 37°48' W 122°21'2 3.5
2017-Oct-13 10:30N 37°48' W 122°18'0 1.0
2017-Oct-13 10:00N 37°48' W 122°18'1 2.3
2017-Oct-13 09:31N 37°48' W 122°19'0 0.0
2017-Oct-13 09:00N 37°48' W 122°19'1 2.3
2017-Oct-13 08:30N 37°48' W 122°21'0 0.7
2017-Oct-13 08:01N 37°49' W 122°20'1 1.7
2017-Oct-13 07:31N 37°48' W 122°20'2 4.0
2017-Oct-13 07:00N 37°48' W 122°17'0 0.0
2017-Oct-13 06:31N 37°48' W 122°17'0 0.0
2017-Oct-13 06:00N 37°48' W 122°17'0 0.0
2017-Oct-13 05:30N 37°48' W 122°17'0 0.0
2017-Oct-13 05:00N 37°48' W 122°17'0 0.0
2017-Oct-13 04:30N 37°48' W 122°17'0 0.0
2017-Oct-13 04:00N 37°48' W 122°17'0 0.0
2017-Oct-13 03:30N 37°48' W 122°17'0 0.0
2017-Oct-13 03:00N 37°48' W 122°17'0 0.0
2017-Oct-13 02:31N 37°48' W 122°17'0 0.0
2017-Oct-13 02:00N 37°48' W 122°17'0 0.0
2017-Oct-13 01:30N 37°48' W 122°17'0 0.0
2017-Oct-13 01:00N 37°48' W 122°17'0 0.0
2017-Oct-13 00:30N 37°48' W 122°17'0 0.0
2017-Oct-13 00:00N 37°48' W 122°17'0 0.0
2017-Oct-12 23:30N 37°48' W 122°17'0 0.0
2017-Oct-12 23:00N 37°48' W 122°17'0 0.0
2017-Oct-12 22:30N 37°48' W 122°17'0 0.0
2017-Oct-12 22:00N 37°48' W 122°17'0 0.0
2017-Oct-12 21:30N 37°48' W 122°17'3 5.8
2017-Oct-12 21:00N 37°47' W 122°21'2 3.6
2017-Oct-12 20:31N 37°46' W 122°22'3 5.5
2017-Oct-12 20:00N 37°48' W 122°23'510.0
2017-Oct-12 19:30N 37°49' W 122°29'2 4.3
2017-Oct-12 19:00N 37°49' W 122°31'0 0.0
2017-Oct-12 18:30N 37°49' W 122°31'4 8.3
2017-Oct-12 18:00N 37°49' W 122°26'5 9.1
2017-Oct-12 17:30N 37°48' W 122°21'0 0.0
2017-Oct-12 17:00N 37°48' W 122°21'0 0.0
2017-Oct-12 16:30N 37°48' W 122°21'0 0.0
2017-Oct-12 16:00N 37°48' W 122°21'2 4.0
2017-Oct-12 15:30N 37°48' W 122°18'1 1.6
2017-Oct-12 15:00N 37°48' W 122°17'0 0.0
2017-Oct-12 14:30N 37°48' W 122°17'0 0.0
2017-Oct-12 14:00N 37°48' W 122°17'2 3.5
2017-Oct-12 13:30N 37°48' W 122°19'1 2.1
2017-Oct-12 13:00N 37°49' W 122°20'0 0.5
2017-Oct-12 12:30N 37°49' W 122°20'2 3.2
2017-Oct-12 12:00N 37°48' W 122°22'1 2.2
2017-Oct-12 11:30N 37°48' W 122°21'0 0.2
2017-Oct-12 11:00N 37°48' W 122°20'3 5.1
2017-Oct-12 10:31N 37°48' W 122°17'2 3.1
2017-Oct-12 10:00N 37°48' W 122°19'0 0.1
2017-Oct-12 09:31N 37°48' W 122°19'2 3.5
2017-Oct-12 09:00N 37°48' W 122°17'0 0.0
2017-Oct-12 08:31N 37°48' W 122°17'0 0.0
2017-Oct-12 08:00N 37°48' W 122°17'0 0.0
2017-Oct-12 07:31N 37°48' W 122°17'0 0.0
2017-Oct-12 07:00N 37°48' W 122°17'1 2.1
2017-Oct-12 06:30N 37°48' W 122°18'0 0.5
2017-Oct-12 06:00N 37°48' W 122°19'0 0.1
2017-Oct-12 05:30N 37°48' W 122°19'1 2.5
2017-Oct-12 05:00N 37°48' W 122°17'0 0.0
2017-Oct-12 04:30N 37°48' W 122°17'0 0.0
2017-Oct-12 04:00N 37°48' W 122°17'0 0.0
2017-Oct-12 03:30N 37°48' W 122°17'3 5.4
2017-Oct-12 03:00N 37°48' W 122°21'4 7.2
2017-Oct-12 02:31N 37°50' W 122°24'5 9.8
2017-Oct-12 02:00N 37°55' W 122°25'2 4.9
2017-Oct-12 01:30N 37°55' W 122°22'0 0.1
2017-Oct-12 01:00N 37°55' W 122°22'1 2.1
2017-Oct-12 00:30N 37°54' W 122°23'2 3.9
2017-Oct-12 00:00N 37°54' W 122°25'510.8
2017-Oct-11 23:30N 37°49' W 122°23'2 4.0
2017-Oct-11 23:00N 37°48' W 122°21'0 0.0
2017-Oct-11 22:30N 37°48' W 122°21'0 0.0
2017-Oct-11 22:00N 37°48' W 122°21'1 1.4
2017-Oct-11 21:30N 37°48' W 122°20'2 4.3
2017-Oct-11 21:00N 37°48' W 122°17'0 0.0
2017-Oct-11 20:31N 37°48' W 122°17'0 0.0
2017-Oct-11 20:00N 37°48' W 122°17'0 0.0
2017-Oct-11 19:31N 37°48' W 122°17'0 0.0
2017-Oct-11 19:00N 37°48' W 122°17'0 0.0
2017-Oct-11 18:30N 37°48' W 122°17'0 0.0
2017-Oct-11 18:00N 37°48' W 122°17'0 0.0
2017-Oct-11 17:30N 37°48' W 122°17'0 0.0
2017-Oct-11 17:00N 37°48' W 122°17'2 0.1
2017-Oct-11 00:00N 37°48' W 122°19'0 0.9
2017-Oct-10 23:30N 37°48' W 122°19'1 1.0
2017-Oct-10 23:00N 37°48' W 122°18'0 0.9
2017-Oct-10 22:30N 37°48' W 122°17'2 4.2
2017-Oct-10 22:00N 37°48' W 122°20'0 0.8
2017-Oct-10 21:30N 37°48' W 122°20'2 3.8
2017-Oct-10 21:00N 37°48' W 122°17'0 0.0
2017-Oct-10 20:30N 37°48' W 122°17'0 0.0
2017-Oct-10 20:00N 37°48' W 122°17'0 0.0
2017-Oct-10 19:30N 37°48' W 122°17'3 6.7
2017-Oct-10 19:00N 37°46' W 122°21'5 9.6
2017-Oct-10 18:30N 37°41' W 122°20'5 9.6
2017-Oct-10 18:00N 37°37' W 122°17'510.1
2017-Oct-10 17:30N 37°34' W 122°13'3 5.6
2017-Oct-10 17:00N 37°31' W 122°12'0 0.1
2017-Oct-10 16:30N 37°31' W 122°12'3 3.4
2017-Oct-10 15:37N 37°34' W 122°13'1 8.3
2017-Oct-10 15:30N 37°34' W 122°14'3 6.3
2017-Oct-10 15:00N 37°36' W 122°17'6 6.0
2017-Oct-10 14:00N 37°42' W 122°20'4 7.3
2017-Oct-10 13:31N 37°45' W 122°21'3 5.8
2017-Oct-10 13:00N 37°48' W 122°21'1 2.0
2017-Oct-10 12:30N 37°49' W 122°20'0 0.0
2017-Oct-10 12:00N 37°49' W 122°20'1 1.8
2017-Oct-10 11:30N 37°48' W 122°19'1 1.0
2017-Oct-10 11:00N 37°48' W 122°19'1 2.7
2017-Oct-10 10:30N 37°48' W 122°17'0 0.0
2017-Oct-10 10:00N 37°48' W 122°17'0 0.0
2017-Oct-10 09:31N 37°48' W 122°17'0 0.0
2017-Oct-10 09:00N 37°48' W 122°17'0 0.0
2017-Oct-10 08:30N 37°48' W 122°17'0 0.0
2017-Oct-10 08:00N 37°48' W 122°17'0 0.0
2017-Oct-10 07:30N 37°48' W 122°17'0 0.0
2017-Oct-10 07:00N 37°48' W 122°17'0 0.0
2017-Oct-10 06:30N 37°48' W 122°17'0 0.0
2017-Oct-10 06:00N 37°48' W 122°17'0 0.0
2017-Oct-10 05:30N 37°48' W 122°17'0 0.0
2017-Oct-10 05:00N 37°48' W 122°17'0 0.0
2017-Oct-10 04:30N 37°48' W 122°17'0 0.0
2017-Oct-10 04:00N 37°48' W 122°17'0 0.0
2017-Oct-10 03:30N 37°48' W 122°17'1 3.0
2017-Oct-10 03:00N 37°48' W 122°19'1 2.4
2017-Oct-10 02:30N 37°48' W 122°18'1 2.0
2017-Oct-10 02:00N 37°48' W 122°19'0 0.1
2017-Oct-10 01:30N 37°48' W 122°19'1 2.6
2017-Oct-10 01:00N 37°48' W 122°17'0 0.0
2017-Oct-10 00:30N 37°48' W 122°17'0 0.0
2017-Oct-10 00:00N 37°48' W 122°17'0 0.0
2017-Oct-09 23:30N 37°48' W 122°17'0 0.0
2017-Oct-09 23:00N 37°48' W 122°17'0 0.0
2017-Oct-09 22:30N 37°48' W 122°17'0 0.0
2017-Oct-09 22:00N 37°48' W 122°17'0 0.0
2017-Oct-09 21:30N 37°48' W 122°17'0 0.0
2017-Oct-09 21:00N 37°48' W 122°17'0 0.1
2017-Oct-09 20:31N 37°48' W 122°17'2 3.2
2017-Oct-09 20:00N 37°47' W 122°15'2 3.3
2017-Oct-09 19:30N 37°48' W 122°17'0 0.0
2017-Oct-09 19:00N 37°48' W 122°17'0 0.0
2017-Oct-09 18:30N 37°48' W 122°17'0 0.0
2017-Oct-09 18:00N 37°48' W 122°17'0 0.0
2017-Oct-09 17:30N 37°48' W 122°17'0 0.0
2017-Oct-09 17:00N 37°48' W 122°17'0 0.0
2017-Oct-09 16:30N 37°48' W 122°17'0 0.0
2017-Oct-09 16:00N 37°48' W 122°17'0 0.0
2017-Oct-09 15:30N 37°48' W 122°17'0 0.1
2017-Oct-09 15:00N 37°48' W 122°17'0 0.1
2017-Oct-09 14:30N 37°48' W 122°17'0 0.0
2017-Oct-09 14:00N 37°48' W 122°17'2 3.6
2017-Oct-09 13:30N 37°48' W 122°19'1 1.6
2017-Oct-09 13:01N 37°48' W 122°18'0 0.9
2017-Oct-09 12:30N 37°48' W 122°18'3 5.7
2017-Oct-09 12:00N 37°48' W 122°21'0 0.1
2017-Oct-09 11:30N 37°48' W 122°21'3 6.8
2017-Oct-09 11:00N 37°48' W 122°17'0 0.0
2017-Oct-09 10:30N 37°48' W 122°17'0 0.0
2017-Oct-09 10:00N 37°48' W 122°17'0 0.0
2017-Oct-09 09:30N 37°48' W 122°17'0 0.0
2017-Oct-09 09:00N 37°48' W 122°17'0 0.0
2017-Oct-09 08:30N 37°48' W 122°17'0 0.0
2017-Oct-09 08:00N 37°48' W 122°17'0 0.0
2017-Oct-09 07:30N 37°48' W 122°17'0 0.0
2017-Oct-09 07:00N 37°48' W 122°17'0 0.0
2017-Oct-09 06:31N 37°48' W 122°17'0 0.0
2017-Oct-09 06:00N 37°48' W 122°17'0 0.0
2017-Oct-09 05:31N 37°48' W 122°17'0 0.0
2017-Oct-09 05:00N 37°48' W 122°17'0 0.0
2017-Oct-09 04:31N 37°48' W 122°17'0 0.0
2017-Oct-09 04:00N 37°48' W 122°17'1 2.5
2017-Oct-09 03:31N 37°48' W 122°19'1 2.0
2017-Oct-09 03:00N 37°48' W 122°17'1 3.0
2017-Oct-09 02:30N 37°48' W 122°19'0 0.1
2017-Oct-09 02:01N 37°48' W 122°19'0 0.8
2017-Oct-09 01:31N 37°48' W 122°19'1 2.5
2017-Oct-09 01:00N 37°48' W 122°17'0 0.0
2017-Oct-09 00:30N 37°48' W 122°17'0 0.0
2017-Oct-09 00:00N 37°48' W 122°17'0 0.0
2017-Oct-08 23:30N 37°48' W 122°17'0 0.0
2017-Oct-08 23:00N 37°48' W 122°17'0 0.0
2017-Oct-08 22:30N 37°48' W 122°17'0 0.0
2017-Oct-08 22:00N 37°48' W 122°17'0 0.0
2017-Oct-08 21:30N 37°48' W 122°17'0 0.0
2017-Oct-08 21:00N 37°48' W 122°17'0 0.0
2017-Oct-08 20:30N 37°48' W 122°17'0 0.0
2017-Oct-08 20:00N 37°48' W 122°17'0 0.0
2017-Oct-08 19:30N 37°48' W 122°17'0 0.0
2017-Oct-08 19:00N 37°48' W 122°17'0 0.0
2017-Oct-08 18:30N 37°48' W 122°17'0 0.0
2017-Oct-08 18:00N 37°48' W 122°17'0 0.0
2017-Oct-08 17:30N 37°48' W 122°17'0 0.0
2017-Oct-08 17:00N 37°48' W 122°17'0 0.0
2017-Oct-08 16:30N 37°48' W 122°17'0 0.0
2017-Oct-08 15:57N 37°48' W 122°17'0 0.0
2017-Oct-08 15:30N 37°48' W 122°17'1 2.6
2017-Oct-08 15:00N 37°48' W 122°19'0 1.0
2017-Oct-08 14:30N 37°48' W 122°19'2 4.5
2017-Oct-08 14:00N 37°48' W 122°22'1 2.5
2017-Oct-08 13:30N 37°47' W 122°22'2 4.0
2017-Oct-08 13:00N 37°48' W 122°20'2 4.4
2017-Oct-08 12:30N 37°48' W 122°17'0 0.0
2017-Oct-08 12:00N 37°48' W 122°17'0 0.0
2017-Oct-08 11:30N 37°48' W 122°17'0 0.0
2017-Oct-08 11:01N 37°48' W 122°17'0 0.0
2017-Oct-08 10:30N 37°48' W 122°17'0 0.0
2017-Oct-08 10:00N 37°48' W 122°17'0 0.0
2017-Oct-08 09:31N 37°48' W 122°17'0 0.0
2017-Oct-08 09:00N 37°48' W 122°17'0 0.0
2017-Oct-08 08:30N 37°48' W 122°17'0 0.0
2017-Oct-08 08:00N 37°48' W 122°17'0 0.0
2017-Oct-08 07:30N 37°48' W 122°17'0 0.0
2017-Oct-08 07:00N 37°48' W 122°17'0 0.0
2017-Oct-08 06:30N 37°48' W 122°17'0 0.0
2017-Oct-08 06:01N 37°48' W 122°17'0 0.0
2017-Oct-08 05:30N 37°48' W 122°17'0 0.0
2017-Oct-08 05:00N 37°48' W 122°17'0 0.0
2017-Oct-08 04:30N 37°48' W 122°17'0 0.0
2017-Oct-08 04:00N 37°48' W 122°17'0 0.0
2017-Oct-08 03:30N 37°48' W 122°17'0 0.0
2017-Oct-08 03:00N 37°48' W 122°17'0 0.0
2017-Oct-08 02:30N 37°48' W 122°17'2 3.7
2017-Oct-08 02:00N 37°48' W 122°19'0 0.1
2017-Oct-08 01:31N 37°48' W 122°19'2 3.6
2017-Oct-08 01:01N 37°48' W 122°17'0 0.0
2017-Oct-08 00:31N 37°48' W 122°17'0 0.0
2017-Oct-08 00:00N 37°48' W 122°17'1 2.7
2017-Oct-07 23:30N 37°48' W 122°19'3 6.6
2017-Oct-07 23:01N 37°49' W 122°23'2 3.6
2017-Oct-07 22:30N 37°50' W 122°25'0 0.3
2017-Oct-07 22:00N 37°50' W 122°25'0 0.5
2017-Oct-07 21:30N 37°50' W 122°25'1 1.2
2017-Oct-07 21:00N 37°50' W 122°24'1 1.0
2017-Oct-07 20:30N 37°49' W 122°24'1 1.2
2017-Oct-07 20:00N 37°49' W 122°23'1 1.8
2017-Oct-07 19:30N 37°48' W 122°22'3 6.0
2017-Oct-07 19:01N 37°48' W 122°19'1 2.5
2017-Oct-07 18:31N 37°48' W 122°17'0 0.0
2017-Oct-07 18:00N 37°48' W 122°17'0 0.0
2017-Oct-07 17:30N 37°48' W 122°17'0 0.0
2017-Oct-07 17:00N 37°48' W 122°17'0 0.0
2017-Oct-07 16:30N 37°48' W 122°17'0 0.0
2017-Oct-07 16:00N 37°48' W 122°17'0 0.0
2017-Oct-07 15:30N 37°48' W 122°17'0 0.0
2017-Oct-07 15:00N 37°48' W 122°17'0 0.0
2017-Oct-07 14:31N 37°48' W 122°17'0 0.0
2017-Oct-07 14:00N 37°48' W 122°17'0 0.5
2017-Oct-07 13:30N 37°48' W 122°17'1 2.2
2017-Oct-07 13:00N 37°48' W 122°19'1 1.7
2017-Oct-07 12:31N 37°48' W 122°18'  
Track history (hours):
 
Tides and Currents Weather Stations Pressure Air Temp Water Temp Dewpoint Dewpoint Depression Visibility Wind Speed Wind Dir Waves Ship Positions

Ahbra Franco

Owner: Harley Marine Services, Inc, Seattle, WA. More information available from US FCC via Universal Licensing System and Coast Guard Vessel Documentation Center.

Last reported at 2017-Oct-17 12:29 UTC. Time now 2017-Oct-17 13:00 UTC.
Position N 37°48' W 122°17'.

Length 33 m; draft 5.9 m.

Type: Tug. MMSI: 367581220.

Date/timePositionNaut miles runAvg speedWind from/ knotsBaromVisibWave heightAir tempDewpointWater temp
2017-Oct-17 12:29N 37°48' W 122°17'0 0.0
2017-Oct-17 11:59N 37°48' W 122°17'0 0.0
2017-Oct-17 11:29N 37°48' W 122°17'0 0.0
2017-Oct-17 10:56N 37°48' W 122°17'0 0.0
2017-Oct-17 10:29N 37°48' W 122°17'0 0.0
2017-Oct-17 09:59N 37°48' W 122°17'0 0.0
2017-Oct-17 09:29N 37°48' W 122°17'0 0.0
2017-Oct-17 08:59N 37°48' W 122°17'0 0.0
2017-Oct-17 08:29N 37°48' W 122°17'0 0.0
2017-Oct-17 07:59N 37°48' W 122°17'0 0.0
2017-Oct-17 07:29N 37°48' W 122°17'0 0.0
2017-Oct-17 06:59N 37°48' W 122°17'0 0.0
2017-Oct-17 06:29N 37°48' W 122°17'0 0.0
2017-Oct-17 05:59N 37°48' W 122°17'0 0.0
2017-Oct-17 05:26N 37°48' W 122°17'0 0.0
2017-Oct-17 04:59N 37°48' W 122°17'0 0.0
2017-Oct-17 04:29N 37°48' W 122°17'0 0.0
2017-Oct-17 03:59N 37°48' W 122°17'0 0.0
2017-Oct-17 03:29N 37°48' W 122°17'0 0.0
2017-Oct-17 02:59N 37°48' W 122°17'0 0.0
2017-Oct-17 02:29N 37°48' W 122°17'0 0.0
2017-Oct-17 01:59N 37°48' W 122°17'0 0.0
2017-Oct-17 01:29N 37°48' W 122°17'0 0.0
2017-Oct-17 00:59N 37°48' W 122°17'0 0.0
2017-Oct-17 00:29N 37°48' W 122°17'0 0.0
2017-Oct-16 23:59N 37°48' W 122°17'0 0.0
2017-Oct-16 23:29N 37°48' W 122°17'0 0.0
2017-Oct-16 22:56N 37°48' W 122°17'1 1.2
2017-Oct-16 22:30N 37°48' W 122°18'1 2.7
2017-Oct-16 22:00N 37°48' W 122°20'0 0.9
2017-Oct-16 21:30N 37°48' W 122°20'0 1.0
2017-Oct-16 21:00N 37°48' W 122°21'3 5.6
2017-Oct-16 20:30N 37°48' W 122°17'0 0.0
2017-Oct-16 20:00N 37°48' W 122°17'0 0.0
2017-Oct-16 19:30N 37°48' W 122°17'0 0.0
2017-Oct-16 19:00N 37°48' W 122°17'0 0.0
2017-Oct-16 18:30N 37°48' W 122°17'0 0.0
2017-Oct-16 18:00N 37°48' W 122°17'0 0.0
2017-Oct-16 17:30N 37°48' W 122°17'0 0.0
2017-Oct-16 17:00N 37°48' W 122°17'0 0.0
2017-Oct-16 16:30N 37°48' W 122°17'0 0.0
2017-Oct-16 16:00N 37°48' W 122°17'0 0.0
2017-Oct-16 15:30N 37°48' W 122°17'0 0.0
2017-Oct-16 15:00N 37°48' W 122°17'0 0.0
2017-Oct-16 14:30N 37°48' W 122°17'1 1.1
2017-Oct-16 13:30N 37°48' W 122°19'0 0.7
2017-Oct-16 13:00N 37°48' W 122°19'1 2.5
2017-Oct-16 12:30N 37°48' W 122°21'1 1.8
2017-Oct-16 12:00N 37°48' W 122°22'2 4.4
2017-Oct-16 11:31N 37°48' W 122°19'0 0.1
2017-Oct-16 11:01N 37°48' W 122°19'0 0.3
2017-Oct-16 10:30N 37°48' W 122°19'1 2.3
2017-Oct-16 10:00N 37°48' W 122°17'0 0.0
2017-Oct-16 09:30N 37°48' W 122°17'0 0.0
2017-Oct-16 09:00N 37°48' W 122°17'0 0.0
2017-Oct-16 08:31N 37°48' W 122°17'0 0.0
2017-Oct-16 08:00N 37°48' W 122°17'0 0.0
2017-Oct-16 07:30N 37°48' W 122°17'0 0.0
2017-Oct-16 07:00N 37°48' W 122°17'0 0.0
2017-Oct-16 06:30N 37°48' W 122°17'0 0.0
2017-Oct-16 06:00N 37°48' W 122°17'0 0.0
2017-Oct-16 05:30N 37°48' W 122°17'0 0.0
2017-Oct-16 05:00N 37°48' W 122°17'0 0.0
2017-Oct-16 04:30N 37°48' W 122°17'0 0.0
2017-Oct-16 04:00N 37°48' W 122°17'0 0.0
2017-Oct-16 03:31N 37°48' W 122°17'0 0.0
2017-Oct-16 03:00N 37°48' W 122°17'0 0.0
2017-Oct-16 02:30N 37°48' W 122°17'0 0.0
2017-Oct-16 02:01N 37°48' W 122°17'0 0.3
2017-Oct-16 01:30N 37°48' W 122°17'1 1.9
2017-Oct-16 01:00N 37°48' W 122°19'1 1.6
2017-Oct-16 00:30N 37°48' W 122°18'2 4.5
2017-Oct-16 00:00N 37°48' W 122°20'2 3.1
2017-Oct-15 23:30N 37°48' W 122°22'4 8.2
2017-Oct-15 23:00N 37°48' W 122°17'0 0.0
2017-Oct-15 22:30N 37°48' W 122°17'0 0.0
2017-Oct-15 22:00N 37°48' W 122°17'0 0.0
2017-Oct-15 21:30N 37°48' W 122°17'0 0.0
2017-Oct-15 21:00N 37°48' W 122°17'0 0.0
2017-Oct-15 20:30N 37°48' W 122°17'0 0.0
2017-Oct-15 20:00N 37°48' W 122°17'4 7.1
2017-Oct-15 19:30N 37°48' W 122°22'2 3.8
2017-Oct-15 19:00N 37°48' W 122°24'4 7.3
2017-Oct-15 18:30N 37°48' W 122°19'2 3.7
2017-Oct-15 18:00N 37°48' W 122°17'0 0.0
2017-Oct-15 17:30N 37°48' W 122°17'0 0.0
2017-Oct-15 17:00N 37°48' W 122°17'2 3.5
2017-Oct-15 16:30N 37°48' W 122°19'4 7.1
2017-Oct-15 16:00N 37°44' W 122°21'5 9.2
2017-Oct-15 15:30N 37°40' W 122°20'5 9.0
2017-Oct-15 15:00N 37°36' W 122°16'6 5.9
2017-Oct-15 14:00N 37°31' W 122°12'0 0.4
2017-Oct-15 13:30N 37°31' W 122°13'1 2.4
2017-Oct-15 13:00N 37°32' W 122°12'510.0
2017-Oct-15 12:30N 37°36' W 122°16'510.9
2017-Oct-15 12:00N 37°40' W 122°20'510.8
2017-Oct-15 11:30N 37°45' W 122°21'3 6.4
2017-Oct-15 11:00N 37°48' W 122°18'1 1.7
2017-Oct-15 10:30N 37°48' W 122°17'0 0.0
2017-Oct-15 10:00N 37°48' W 122°17'0 0.0
2017-Oct-15 09:30N 37°48' W 122°17'0 0.0
2017-Oct-15 09:01N 37°48' W 122°17'0 0.0
2017-Oct-15 08:30N 37°48' W 122°17'0 0.0
2017-Oct-15 08:00N 37°48' W 122°17'0 0.0
2017-Oct-15 07:30N 37°48' W 122°17'0 0.0
2017-Oct-15 07:01N 37°48' W 122°17'3 5.0
2017-Oct-15 06:30N 37°48' W 122°20'4 7.8
2017-Oct-15 06:00N 37°51' W 122°24'510.6
2017-Oct-15 05:30N 37°56' W 122°26'5 9.6
2017-Oct-15 05:00N 38°00' W 122°24'5 9.3
2017-Oct-15 04:28N 38°03' W 122°19'4 8.6
2017-Oct-15 04:00N 38°04' W 122°14'5 3.8
2017-Oct-15 02:48N 38°02' W 122°08'1 2.9
2017-Oct-15 02:20N 38°02' W 122°10'3 0.4
2017-Oct-14 18:17N 38°04' W 122°13'310.0
2017-Oct-14 17:59N 38°03' W 122°17'6 9.8
2017-Oct-14 17:20N 38°00' W 122°24'4 9.2
2017-Oct-14 16:52N 37°56' W 122°26'410.5
2017-Oct-14 16:30N 37°53' W 122°25'510.0
2017-Oct-14 16:00N 37°48' W 122°22'4 7.9
2017-Oct-14 15:30N 37°48' W 122°17'0 0.1
2017-Oct-14 15:00N 37°48' W 122°17'0 0.0
2017-Oct-14 14:30N 37°48' W 122°17'0 0.0
2017-Oct-14 14:00N 37°48' W 122°17'0 0.0
2017-Oct-14 13:30N 37°48' W 122°17'0 0.0
2017-Oct-14 13:00N 37°48' W 122°17'0 0.0
2017-Oct-14 12:30N 37°48' W 122°17'2 3.1
2017-Oct-14 12:00N 37°48' W 122°19'1 2.8
2017-Oct-14 11:30N 37°48' W 122°17'2 3.3
2017-Oct-14 11:00N 37°48' W 122°19'0 0.2
2017-Oct-14 10:31N 37°48' W 122°20'0 0.2
2017-Oct-14 10:00N 37°48' W 122°19'2 3.6
2017-Oct-14 09:30N 37°48' W 122°17'0 0.0
2017-Oct-14 09:00N 37°48' W 122°17'0 0.0
2017-Oct-14 08:30N 37°48' W 122°17'0 0.0
2017-Oct-14 08:01N 37°48' W 122°17'0 0.0
2017-Oct-14 07:30N 37°48' W 122°17'3 5.2
2017-Oct-14 07:00N 37°48' W 122°20'4 7.8
2017-Oct-14 06:30N 37°51' W 122°24'611.4
2017-Oct-14 06:00N 37°56' W 122°26'510.6
2017-Oct-14 05:30N 38°01' W 122°23'510.1
2017-Oct-14 05:00N 38°03' W 122°17'5 9.4
2017-Oct-14 04:30N 38°03' W 122°11'3 6.1
2017-Oct-14 04:00N 38°02' W 122°08'0 0.0
2017-Oct-14 03:27N 38°02' W 122°08'0 0.3
2017-Oct-14 02:59N 38°02' W 122°08'0 0.5
2017-Oct-14 02:26N 38°02' W 122°08'4 9.8
2017-Oct-14 02:00N 38°04' W 122°13'610.7
2017-Oct-14 01:28N 38°03' W 122°20'710.6
2017-Oct-14 00:50N 37°58' W 122°26'2 7.2
2017-Oct-14 00:30N 37°55' W 122°25'3 5.6
2017-Oct-14 00:00N 37°54' W 122°22'1 1.8
2017-Oct-13 23:30N 37°55' W 122°22'0 0.7
2017-Oct-13 23:00N 37°55' W 122°22'1 1.1
2017-Oct-13 22:30N 37°54' W 122°22'4 8.5
2017-Oct-13 22:00N 37°57' W 122°26'510.1
2017-Oct-13 21:30N 38°01' W 122°23'610.9
2017-Oct-13 20:55N 38°04' W 122°15'510.7
2017-Oct-13 20:25N 38°02' W 122°08'1 0.5
2017-Oct-13 19:21N 38°02' W 122°08'0 0.4
2017-Oct-13 19:00N 38°02' W 122°08'3 6.3
2017-Oct-13 18:27N 38°03' W 122°12'4 8.6
2017-Oct-13 18:00N 38°04' W 122°17'5 7.5
2017-Oct-13 17:17N 38°01' W 122°23'310.2
2017-Oct-13 16:58N 37°59' W 122°26'5 9.9
2017-Oct-13 16:30N 37°54' W 122°27'510.5
2017-Oct-13 16:00N 37°49' W 122°24'4 8.8
2017-Oct-13 15:30N 37°46' W 122°21'0 0.4
2017-Oct-13 15:00N 37°45' W 122°21'3 5.4
2017-Oct-13 14:30N 37°48' W 122°21'0 0.9
2017-Oct-13 14:00N 37°48' W 122°21'0 0.0
2017-Oct-13 13:30N 37°48' W 122°21'1 2.2
2017-Oct-13 13:01N 37°48' W 122°19'1 1.6
2017-Oct-13 12:30N 37°48' W 122°20'1 3.0
2017-Oct-13 12:00N 37°48' W 122°22'1 2.7
2017-Oct-13 11:30N 37°48' W 122°21'0 0.0
2017-Oct-13 11:00N 37°48' W 122°21'2 3.5
2017-Oct-13 10:30N 37°48' W 122°18'0 1.0
2017-Oct-13 10:00N 37°48' W 122°18'1 2.3
2017-Oct-13 09:31N 37°48' W 122°19'0 0.0
2017-Oct-13 09:00N 37°48' W 122°19'1 2.3
2017-Oct-13 08:30N 37°48' W 122°21'0 0.7
2017-Oct-13 08:01N 37°49' W 122°20'1 1.7
2017-Oct-13 07:31N 37°48' W 122°20'2 4.0
2017-Oct-13 07:00N 37°48' W 122°17'0 0.0
2017-Oct-13 06:31N 37°48' W 122°17'0 0.0
2017-Oct-13 06:00N 37°48' W 122°17'0 0.0
2017-Oct-13 05:30N 37°48' W 122°17'0 0.0
2017-Oct-13 05:00N 37°48' W 122°17'0 0.0
2017-Oct-13 04:30N 37°48' W 122°17'0 0.0
2017-Oct-13 04:00N 37°48' W 122°17'0 0.0
2017-Oct-13 03:30N 37°48' W 122°17'0 0.0
2017-Oct-13 03:00N 37°48' W 122°17'0 0.0
2017-Oct-13 02:31N 37°48' W 122°17'0 0.0
2017-Oct-13 02:00N 37°48' W 122°17'0 0.0
2017-Oct-13 01:30N 37°48' W 122°17'0 0.0
2017-Oct-13 01:00N 37°48' W 122°17'0 0.0
2017-Oct-13 00:30N 37°48' W 122°17'0 0.0
2017-Oct-13 00:00N 37°48' W 122°17'0 0.0
2017-Oct-12 23:30N 37°48' W 122°17'0 0.0
2017-Oct-12 23:00N 37°48' W 122°17'0 0.0
2017-Oct-12 22:30N 37°48' W 122°17'0 0.0
2017-Oct-12 22:00N 37°48' W 122°17'0 0.0
2017-Oct-12 21:30N 37°48' W 122°17'3 5.8
2017-Oct-12 21:00N 37°47' W 122°21'2 3.6
2017-Oct-12 20:31N 37°46' W 122°22'3 5.5
2017-Oct-12 20:00N 37°48' W 122°23'510.0
2017-Oct-12 19:30N 37°49' W 122°29'2 4.3
2017-Oct-12 19:00N 37°49' W 122°31'0 0.0
2017-Oct-12 18:30N 37°49' W 122°31'4 8.3
2017-Oct-12 18:00N 37°49' W 122°26'5 9.1
2017-Oct-12 17:30N 37°48' W 122°21'0 0.0
2017-Oct-12 17:00N 37°48' W 122°21'0 0.0
2017-Oct-12 16:30N 37°48' W 122°21'0 0.0
2017-Oct-12 16:00N 37°48' W 122°21'2 4.0
2017-Oct-12 15:30N 37°48' W 122°18'1 1.6
2017-Oct-12 15:00N 37°48' W 122°17'0 0.0
2017-Oct-12 14:30N 37°48' W 122°17'0 0.0
2017-Oct-12 14:00N 37°48' W 122°17'2 3.5
2017-Oct-12 13:30N 37°48' W 122°19'1 2.1
2017-Oct-12 13:00N 37°49' W 122°20'0 0.5
2017-Oct-12 12:30N 37°49' W 122°20'2 3.2
2017-Oct-12 12:00N 37°48' W 122°22'1 2.2
2017-Oct-12 11:30N 37°48' W 122°21'0 0.2
2017-Oct-12 11:00N 37°48' W 122°20'3 5.1
2017-Oct-12 10:31N 37°48' W 122°17'2 3.1
2017-Oct-12 10:00N 37°48' W 122°19'0 0.1
2017-Oct-12 09:31N 37°48' W 122°19'2 3.5
2017-Oct-12 09:00N 37°48' W 122°17'0 0.0
2017-Oct-12 08:31N 37°48' W 122°17'0 0.0
2017-Oct-12 08:00N 37°48' W 122°17'0 0.0
2017-Oct-12 07:31N 37°48' W 122°17'0 0.0
2017-Oct-12 07:00N 37°48' W 122°17'1 2.1
2017-Oct-12 06:30N 37°48' W 122°18'0 0.5
2017-Oct-12 06:00N 37°48' W 122°19'0 0.1
2017-Oct-12 05:30N 37°48' W 122°19'1 2.5
2017-Oct-12 05:00N 37°48' W 122°17'0 0.0
2017-Oct-12 04:30N 37°48' W 122°17'0 0.0
2017-Oct-12 04:00N 37°48' W 122°17'0 0.0
2017-Oct-12 03:30N 37°48' W 122°17'3 5.4
2017-Oct-12 03:00N 37°48' W 122°21'4 7.2
2017-Oct-12 02:31N 37°50' W 122°24'5 9.8
2017-Oct-12 02:00N 37°55' W 122°25'2 4.9
2017-Oct-12 01:30N 37°55' W 122°22'0 0.1
2017-Oct-12 01:00N 37°55' W 122°22'1 2.1
2017-Oct-12 00:30N 37°54' W 122°23'2 3.9
2017-Oct-12 00:00N 37°54' W 122°25'510.8
2017-Oct-11 23:30N 37°49' W 122°23'2 4.0
2017-Oct-11 23:00N 37°48' W 122°21'0 0.0
2017-Oct-11 22:30N 37°48' W 122°21'0 0.0
2017-Oct-11 22:00N 37°48' W 122°21'1 1.4
2017-Oct-11 21:30N 37°48' W 122°20'2 4.3
2017-Oct-11 21:00N 37°48' W 122°17'0 0.0
2017-Oct-11 20:31N 37°48' W 122°17'0 0.0
2017-Oct-11 20:00N 37°48' W 122°17'0 0.0
2017-Oct-11 19:31N 37°48' W 122°17'0 0.0
2017-Oct-11 19:00N 37°48' W 122°17'0 0.0
2017-Oct-11 18:30N 37°48' W 122°17'0 0.0
2017-Oct-11 18:00N 37°48' W 122°17'0 0.0
2017-Oct-11 17:30N 37°48' W 122°17'0 0.0
2017-Oct-11 17:00N 37°48' W 122°17'2 0.1
2017-Oct-11 00:00N 37°48' W 122°19'0 0.9
2017-Oct-10 23:30N 37°48' W 122°19'1 1.0
2017-Oct-10 23:00N 37°48' W 122°18'0 0.9
2017-Oct-10 22:30N 37°48' W 122°17'2 4.2
2017-Oct-10 22:00N 37°48' W 122°20'0 0.8
2017-Oct-10 21:30N 37°48' W 122°20'2 3.8
2017-Oct-10 21:00N 37°48' W 122°17'0 0.0
2017-Oct-10 20:30N 37°48' W 122°17'0 0.0
2017-Oct-10 20:00N 37°48' W 122°17'0 0.0
2017-Oct-10 19:30N 37°48' W 122°17'3 6.7
2017-Oct-10 19:00N 37°46' W 122°21'5 9.6
2017-Oct-10 18:30N 37°41' W 122°20'5 9.6
2017-Oct-10 18:00N 37°37' W 122°17'510.1
2017-Oct-10 17:30N 37°34' W 122°13'3 5.6
2017-Oct-10 17:00N 37°31' W 122°12'0 0.1
2017-Oct-10 16:30N 37°31' W 122°12'3 3.4
2017-Oct-10 15:37N 37°34' W 122°13'1 8.3
2017-Oct-10 15:30N 37°34' W 122°14'3 6.3
2017-Oct-10 15:00N 37°36' W 122°17'6 6.0
2017-Oct-10 14:00N 37°42' W 122°20'4 7.3
2017-Oct-10 13:31N 37°45' W 122°21'3 5.8
2017-Oct-10 13:00N 37°48' W 122°21'1 2.0
2017-Oct-10 12:30N 37°49' W 122°20'0 0.0
2017-Oct-10 12:00N 37°49' W 122°20'1 1.8
2017-Oct-10 11:30N 37°48' W 122°19'1 1.0
2017-Oct-10 11:00N 37°48' W 122°19'1 2.7
2017-Oct-10 10:30N 37°48' W 122°17'0 0.0
2017-Oct-10 10:00N 37°48' W 122°17'0 0.0
2017-Oct-10 09:31N 37°48' W 122°17'0 0.0
2017-Oct-10 09:00N 37°48' W 122°17'0 0.0
2017-Oct-10 08:30N 37°48' W 122°17'0 0.0
2017-Oct-10 08:00N 37°48' W 122°17'0 0.0
2017-Oct-10 07:30N 37°48' W 122°17'0 0.0
2017-Oct-10 07:00N 37°48' W 122°17'0 0.0
2017-Oct-10 06:30N 37°48' W 122°17'0 0.0
2017-Oct-10 06:00N 37°48' W 122°17'0 0.0
2017-Oct-10 05:30N 37°48' W 122°17'0 0.0
2017-Oct-10 05:00N 37°48' W 122°17'0 0.0
2017-Oct-10 04:30N 37°48' W 122°17'0 0.0
2017-Oct-10 04:00N 37°48' W 122°17'0 0.0
2017-Oct-10 03:30N 37°48' W 122°17'1 3.0
2017-Oct-10 03:00N 37°48' W 122°19'1 2.4
2017-Oct-10 02:30N 37°48' W 122°18'1 2.0
2017-Oct-10 02:00N 37°48' W 122°19'0 0.1
2017-Oct-10 01:30N 37°48' W 122°19'1 2.6
2017-Oct-10 01:00N 37°48' W 122°17'0 0.0
2017-Oct-10 00:30N 37°48' W 122°17'0 0.0
2017-Oct-10 00:00N 37°48' W 122°17'0 0.0
2017-Oct-09 23:30N 37°48' W 122°17'0 0.0
2017-Oct-09 23:00N 37°48' W 122°17'0 0.0
2017-Oct-09 22:30N 37°48' W 122°17'0 0.0
2017-Oct-09 22:00N 37°48' W 122°17'0 0.0
2017-Oct-09 21:30N 37°48' W 122°17'0 0.0
2017-Oct-09 21:00N 37°48' W 122°17'0 0.1
2017-Oct-09 20:31N 37°48' W 122°17'2 3.2
2017-Oct-09 20:00N 37°47' W 122°15'2 3.3
2017-Oct-09 19:30N 37°48' W 122°17'0 0.0
2017-Oct-09 19:00N 37°48' W 122°17'0 0.0
2017-Oct-09 18:30N 37°48' W 122°17'0 0.0
2017-Oct-09 18:00N 37°48' W 122°17'0 0.0
2017-Oct-09 17:30N 37°48' W 122°17'0 0.0
2017-Oct-09 17:00N 37°48' W 122°17'0 0.0
2017-Oct-09 16:30N 37°48' W 122°17'0 0.0
2017-Oct-09 16:00N 37°48' W 122°17'0 0.0
2017-Oct-09 15:30N 37°48' W 122°17'0 0.1
2017-Oct-09 15:00N 37°48' W 122°17'0 0.1
2017-Oct-09 14:30N 37°48' W 122°17'0 0.0
2017-Oct-09 14:00N 37°48' W 122°17'2 3.6
2017-Oct-09 13:30N 37°48' W 122°19'1 1.6
2017-Oct-09 13:01N 37°48' W 122°18'0 0.9
2017-Oct-09 12:30N 37°48' W 122°18'3 5.7
2017-Oct-09 12:00N 37°48' W 122°21'0 0.1
2017-Oct-09 11:30N 37°48' W 122°21'3 6.8
2017-Oct-09 11:00N 37°48' W 122°17'0 0.0
2017-Oct-09 10:30N 37°48' W 122°17'0 0.0
2017-Oct-09 10:00N 37°48' W 122°17'0 0.0
2017-Oct-09 09:30N 37°48' W 122°17'0 0.0
2017-Oct-09 09:00N 37°48' W 122°17'0 0.0
2017-Oct-09 08:30N 37°48' W 122°17'0 0.0
2017-Oct-09 08:00N 37°48' W 122°17'0 0.0
2017-Oct-09 07:30N 37°48' W 122°17'0 0.0
2017-Oct-09 07:00N 37°48' W 122°17'0 0.0
2017-Oct-09 06:31N 37°48' W 122°17'0 0.0
2017-Oct-09 06:00N 37°48' W 122°17'0 0.0
2017-Oct-09 05:31N 37°48' W 122°17'0 0.0
2017-Oct-09 05:00N 37°48' W 122°17'0 0.0
2017-Oct-09 04:31N 37°48' W 122°17'0 0.0
2017-Oct-09 04:00N 37°48' W 122°17'1 2.5
2017-Oct-09 03:31N 37°48' W 122°19'1 2.0
2017-Oct-09 03:00N 37°48' W 122°17'1 3.0
2017-Oct-09 02:30N 37°48' W 122°19'0 0.1
2017-Oct-09 02:01N 37°48' W 122°19'0 0.8
2017-Oct-09 01:31N 37°48' W 122°19'1 2.5
2017-Oct-09 01:00N 37°48' W 122°17'0 0.0
2017-Oct-09 00:30N 37°48' W 122°17'0 0.0
2017-Oct-09 00:00N 37°48' W 122°17'0 0.0
2017-Oct-08 23:30N 37°48' W 122°17'0 0.0
2017-Oct-08 23:00N 37°48' W 122°17'0 0.0
2017-Oct-08 22:30N 37°48' W 122°17'0 0.0
2017-Oct-08 22:00N 37°48' W 122°17'0 0.0
2017-Oct-08 21:30N 37°48' W 122°17'0 0.0
2017-Oct-08 21:00N 37°48' W 122°17'0 0.0
2017-Oct-08 20:30N 37°48' W 122°17'0 0.0
2017-Oct-08 20:00N 37°48' W 122°17'0 0.0
2017-Oct-08 19:30N 37°48' W 122°17'0 0.0
2017-Oct-08 19:00N 37°48' W 122°17'0 0.0
2017-Oct-08 18:30N 37°48' W 122°17'0 0.0
2017-Oct-08 18:00N 37°48' W 122°17'0 0.0
2017-Oct-08 17:30N 37°48' W 122°17'0 0.0
2017-Oct-08 17:00N 37°48' W 122°17'0 0.0
2017-Oct-08 16:30N 37°48' W 122°17'0 0.0
2017-Oct-08 15:57N 37°48' W 122°17'0 0.0
2017-Oct-08 15:30N 37°48' W 122°17'1 2.6
2017-Oct-08 15:00N 37°48' W 122°19'0 1.0
2017-Oct-08 14:30N 37°48' W 122°19'2 4.5
2017-Oct-08 14:00N 37°48' W 122°22'1 2.5
2017-Oct-08 13:30N 37°47' W 122°22'2 4.0
2017-Oct-08 13:00N 37°48' W 122°20'2 4.4
2017-Oct-08 12:30N 37°48' W 122°17'0 0.0
2017-Oct-08 12:00N 37°48' W 122°17'0 0.0
2017-Oct-08 11:30N 37°48' W 122°17'0 0.0
2017-Oct-08 11:01N 37°48' W 122°17'0 0.0
2017-Oct-08 10:30N 37°48' W 122°17'0 0.0
2017-Oct-08 10:00N 37°48' W 122°17'0 0.0
2017-Oct-08 09:31N 37°48' W 122°17'0 0.0
2017-Oct-08 09:00N 37°48' W 122°17'0 0.0
2017-Oct-08 08:30N 37°48' W 122°17'0 0.0
2017-Oct-08 08:00N 37°48' W 122°17'0 0.0
2017-Oct-08 07:30N 37°48' W 122°17'0 0.0
2017-Oct-08 07:00N 37°48' W 122°17'0 0.0
2017-Oct-08 06:30N 37°48' W 122°17'0 0.0
2017-Oct-08 06:01N 37°48' W 122°17'0 0.0
2017-Oct-08 05:30N 37°48' W 122°17'0 0.0
2017-Oct-08 05:00N 37°48' W 122°17'0 0.0
2017-Oct-08 04:30N 37°48' W 122°17'0 0.0
2017-Oct-08 04:00N 37°48' W 122°17'0 0.0
2017-Oct-08 03:30N 37°48' W 122°17'0 0.0
2017-Oct-08 03:00N 37°48' W 122°17'0 0.0
2017-Oct-08 02:30N 37°48' W 122°17'2 3.7
2017-Oct-08 02:00N 37°48' W 122°19'0 0.1
2017-Oct-08 01:31N 37°48' W 122°19'2 3.6
2017-Oct-08 01:01N 37°48' W 122°17'0 0.0
2017-Oct-08 00:31N 37°48' W 122°17'0 0.0
2017-Oct-08 00:00N 37°48' W 122°17'1 2.7
2017-Oct-07 23:30N 37°48' W 122°19'3 6.6
2017-Oct-07 23:01N 37°49' W 122°23'2 3.6
2017-Oct-07 22:30N 37°50' W 122°25'0 0.3
2017-Oct-07 22:00N 37°50' W 122°25'0 0.5
2017-Oct-07 21:30N 37°50' W 122°25'1 1.2
2017-Oct-07 21:00N 37°50' W 122°24'1 1.0
2017-Oct-07 20:30N 37°49' W 122°24'1 1.2
2017-Oct-07 20:00N 37°49' W 122°23'1 1.8
2017-Oct-07 19:30N 37°48' W 122°22'3 6.0
2017-Oct-07 19:01N 37°48' W 122°19'1 2.5
2017-Oct-07 18:31N 37°48' W 122°17'0 0.0
2017-Oct-07 18:00N 37°48' W 122°17'0 0.0
2017-Oct-07 17:30N 37°48' W 122°17'0 0.0
2017-Oct-07 17:00N 37°48' W 122°17'0 0.0
2017-Oct-07 16:30N 37°48' W 122°17'0 0.0
2017-Oct-07 16:00N 37°48' W 122°17'0 0.0
2017-Oct-07 15:30N 37°48' W 122°17'0 0.0
2017-Oct-07 15:00N 37°48' W 122°17'0 0.0
2017-Oct-07 14:31N 37°48' W 122°17'0 0.0
2017-Oct-07 14:00N 37°48' W 122°17'0 0.5
2017-Oct-07 13:30N 37°48' W 122°17'1 2.2
2017-Oct-07 13:00N 37°48' W 122°19'1 1.7
2017-Oct-07 12:31N 37°48' W 122°18'  

Dump ship's entire track history